createdAt,value
2022-09-10T00:01:40.569Z,5.50
2022-09-10T00:04:13.048Z,6.27
2022-09-10T00:06:43.185Z,5.43
2022-09-10T00:09:14.524Z,6.53
2022-09-10T00:11:43.592Z,5.87
2022-09-10T00:14:16.178Z,5.87
2022-09-10T00:16:45.432Z,6.17
2022-09-10T00:19:15.261Z,6.27
2022-09-10T00:21:44.348Z,6.03
2022-09-10T00:24:15.132Z,5.60
2022-09-10T00:26:43.515Z,6.90
2022-09-10T00:29:15.126Z,6.60
2022-09-10T00:31:44.878Z,6.93
2022-09-10T00:34:15.085Z,6.60
2022-09-10T00:36:44.868Z,6.60
2022-09-10T00:39:19.362Z,5.90
2022-09-10T00:41:49.843Z,5.90
2022-09-10T00:45:00.646Z,6.67
2022-09-10T00:47:36.243Z,6.93
2022-09-10T00:50:17.009Z,6.80
2022-09-10T00:52:47.361Z,5.80
2022-09-10T00:55:18.756Z,6.67
2022-09-10T00:57:51.922Z,5.30
2022-09-10T01:00:22.110Z,5.50
2022-09-10T01:02:50.479Z,5.40
2022-09-10T01:05:19.670Z,5.33
2022-09-10T01:07:48.392Z,5.53
2022-09-10T01:10:26.817Z,5.70
2022-09-10T01:13:27.057Z,5.40
2022-09-10T01:16:10.055Z,6.00
2022-09-10T01:18:54.929Z,6.67
2022-09-10T01:21:31.001Z,5.60
2022-09-10T01:24:41.245Z,4.07
2022-09-10T01:27:42.521Z,5.67
2022-09-10T01:30:18.053Z,5.70
2022-09-10T01:33:10.420Z,6.07
2022-09-10T01:35:50.750Z,5.07
2022-09-10T01:38:26.977Z,5.90
2022-09-10T01:40:57.334Z,5.63
2022-09-10T01:43:29.348Z,6.60
2022-09-10T01:46:26.639Z,6.17
2022-09-10T01:49:14.812Z,6.37
2022-09-10T01:52:04.965Z,6.50
2022-09-10T01:54:52.757Z,5.70
2022-09-10T01:57:35.717Z,6.53
2022-09-10T02:00:10.440Z,7.47
2022-09-10T02:02:49.210Z,6.70
2022-09-10T02:05:23.158Z,7.17
2022-09-10T02:08:03.680Z,7.30
2022-09-10T02:10:32.617Z,6.23
2022-09-10T02:13:01.486Z,7.90
2022-09-10T02:16:02.877Z,7.40
2022-09-10T02:18:42.449Z,7.70
2022-09-10T02:21:13.178Z,6.77
2022-09-10T02:23:46.638Z,8.13
2022-09-10T02:26:16.676Z,8.23
2022-09-10T02:28:49.594Z,7.50
2022-09-10T02:31:19.953Z,9.20
2022-09-10T02:33:48.889Z,8.40
2022-09-10T02:36:17.227Z,8.87
2022-09-10T02:38:45.569Z,7.27
2022-09-10T02:41:15.580Z,8.53
2022-09-10T02:43:45.204Z,7.30
2022-09-10T02:46:13.759Z,7.20
2022-09-10T02:48:44.893Z,6.93
2022-09-10T02:51:13.497Z,6.67
2022-09-10T02:53:42.248Z,7.40
2022-09-10T02:56:10.666Z,6.90
2022-09-10T02:58:39.103Z,6.70
2022-09-10T03:01:10.216Z,8.00
2022-09-10T03:03:40.579Z,8.27
2022-09-10T03:06:11.349Z,6.70
2022-09-10T03:08:39.844Z,7.40
2022-09-10T03:11:08.405Z,6.97
2022-09-10T03:13:36.804Z,6.60
2022-09-10T03:16:05.349Z,8.20
2022-09-10T03:18:35.301Z,7.13
2022-09-10T03:21:14.839Z,8.07
2022-09-10T03:23:46.042Z,7.77
2022-09-10T03:26:19.312Z,6.90
2022-09-10T03:28:50.104Z,7.10
2022-09-10T03:31:21.713Z,8.13
2022-09-10T03:33:52.067Z,6.70
2022-09-10T03:36:22.788Z,7.27
2022-09-10T03:38:51.650Z,7.80
2022-09-10T03:41:19.987Z,6.53
2022-09-10T03:43:49.915Z,7.23
2022-09-10T03:46:18.935Z,6.60
2022-09-10T03:48:54.649Z,7.13
2022-09-10T03:51:27.418Z,6.30
2022-09-10T03:53:56.953Z,7.23
2022-09-10T03:56:25.865Z,7.37
2022-09-10T03:58:54.829Z,7.60
2022-09-10T04:01:23.239Z,8.83
2022-09-10T04:03:56.764Z,7.37
2022-09-10T04:06:28.540Z,8.10
2022-09-10T04:08:57.473Z,7.10
2022-09-10T04:11:27.416Z,7.73
2022-09-10T04:13:57.352Z,7.17
2022-09-10T04:16:27.318Z,7.40
2022-09-10T04:18:55.973Z,7.10
2022-09-10T04:21:24.576Z,7.13
2022-09-10T04:23:57.079Z,7.30
2022-09-10T04:26:26.635Z,7.50
2022-09-10T04:28:55.214Z,6.70
2022-09-10T04:31:24.094Z,6.87
2022-09-10T04:33:56.525Z,7.37
2022-09-10T04:36:27.841Z,6.60
2022-09-10T04:38:58.190Z,7.20
2022-09-10T04:41:26.558Z,6.63
2022-09-10T04:43:55.691Z,6.97
2022-09-10T04:46:26.453Z,6.43
2022-09-10T04:48:58.062Z,7.10
2022-09-10T04:51:27.147Z,6.10
2022-09-10T04:53:57.973Z,5.93
2022-09-10T04:56:30.924Z,8.13
2022-09-10T04:59:00.866Z,6.40
2022-09-10T05:01:31.484Z,7.33
2022-09-10T05:03:59.880Z,6.33
2022-09-10T05:06:28.813Z,6.50
2022-09-10T05:08:59.345Z,6.43
2022-09-10T05:11:28.217Z,6.57
2022-09-10T05:13:56.592Z,7.07
2022-09-10T05:16:28.909Z,6.80
2022-09-10T05:18:59.141Z,6.33
2022-09-10T05:21:31.039Z,4.97
2022-09-10T05:24:01.222Z,5.80
2022-09-10T05:26:29.585Z,5.67
2022-09-10T05:28:59.751Z,5.90
2022-09-10T05:31:28.824Z,5.50
2022-09-10T05:33:59.315Z,5.60
2022-09-10T05:36:27.842Z,5.10
2022-09-10T05:38:56.382Z,5.00
2022-09-10T05:41:26.147Z,6.23
2022-09-10T05:43:56.326Z,5.60
2022-09-10T05:46:24.855Z,6.03
2022-09-10T05:48:56.234Z,6.03
2022-09-10T05:51:27.800Z,6.20
2022-09-10T05:53:58.488Z,5.97
2022-09-10T05:56:28.779Z,6.30
2022-09-10T05:58:58.136Z,6.87
2022-09-10T06:01:27.067Z,6.00
2022-09-10T06:03:56.160Z,6.57
2022-09-10T06:06:27.492Z,6.60
2022-09-10T06:09:04.570Z,7.00
2022-09-10T06:11:54.644Z,7.37
2022-09-10T06:14:24.712Z,6.27
2022-09-10T06:16:54.652Z,6.40
2022-09-10T06:19:23.887Z,6.13
2022-09-10T06:21:53.287Z,5.63
2022-09-10T06:24:22.538Z,6.40
2022-09-10T06:26:54.494Z,5.97
2022-09-10T06:29:25.188Z,6.00
2022-09-10T06:31:53.679Z,6.00
2022-09-10T06:34:22.385Z,7.27
2022-09-10T06:36:51.539Z,7.00
2022-09-10T06:39:20.375Z,6.33
2022-09-10T06:41:57.985Z,5.93
2022-09-10T06:44:45.441Z,6.23
2022-09-10T06:48:25.400Z,5.17
2022-09-10T06:50:13.207Z,5.80
2022-09-10T06:52:44.822Z,5.50
2022-09-10T06:55:15.468Z,5.77
2022-09-10T06:57:49.229Z,5.17
2022-09-10T07:00:18.731Z,5.20
2022-09-10T07:02:53.750Z,5.47
2022-09-10T07:05:24.060Z,4.90
2022-09-10T07:07:54.867Z,4.10
2022-09-10T07:10:23.986Z,4.30
2022-09-10T07:12:54.781Z,4.87
2022-09-10T07:15:23.876Z,5.50
2022-09-10T07:17:52.537Z,4.43
2022-09-10T07:20:23.346Z,5.20
2022-09-10T07:22:55.181Z,4.57
2022-09-10T07:25:27.490Z,3.80
2022-09-10T07:28:04.794Z,4.27
2022-09-10T07:30:35.884Z,4.33
2022-09-10T07:33:04.464Z,4.00
2022-09-10T07:35:36.123Z,4.10
2022-09-10T07:38:05.581Z,4.20
2022-09-10T07:40:38.179Z,4.40
2022-09-10T07:43:08.914Z,3.80
2022-09-10T07:45:37.787Z,3.63
2022-09-10T07:48:07.003Z,4.40
2022-09-10T07:50:39.745Z,3.73
2022-09-10T07:53:08.556Z,2.87
2022-09-10T07:55:37.641Z,2.80
2022-09-10T07:58:08.174Z,4.00
2022-09-10T08:00:38.035Z,2.37
2022-09-10T08:03:12.295Z,2.37
2022-09-10T08:05:41.041Z,2.73
2022-09-10T08:08:10.459Z,2.47
2022-09-10T08:10:39.104Z,2.33
2022-09-10T08:13:10.035Z,2.20
2022-09-10T08:15:44.617Z,2.30
2022-09-10T08:18:14.711Z,1.97
2022-09-10T08:20:43.257Z,2.40
2022-09-10T08:23:11.694Z,1.93
2022-09-10T08:25:40.233Z,1.90
2022-09-10T08:28:11.904Z,2.33
2022-09-10T08:30:41.463Z,2.50
2022-09-10T08:33:10.696Z,2.50
2022-09-10T08:35:41.261Z,2.33
2022-09-10T08:38:10.203Z,3.13
2022-09-10T08:40:44.565Z,3.73
2022-09-10T08:43:15.084Z,4.03
2022-09-10T08:45:51.864Z,5.00
2022-09-10T08:48:25.903Z,5.27
2022-09-10T08:51:04.508Z,5.40
2022-09-10T08:53:50.765Z,5.30
2022-09-10T08:56:24.065Z,5.70
2022-09-10T08:59:03.923Z,6.07
2022-09-10T09:01:44.320Z,6.03
2022-09-10T09:04:28.724Z,6.47
2022-09-10T09:07:05.901Z,6.20
2022-09-10T09:09:34.356Z,6.73
2022-09-10T09:12:16.161Z,6.93
2022-09-10T09:15:08.693Z,6.37
2022-09-10T09:17:59.707Z,7.53
2022-09-10T09:20:44.926Z,7.30
2022-09-10T09:23:23.409Z,7.93
2022-09-10T09:25:59.063Z,8.50
2022-09-10T09:28:41.964Z,7.27
2022-09-10T09:31:20.369Z,7.47
2022-09-10T09:33:52.683Z,7.90
2022-09-10T09:36:34.547Z,6.70
2022-09-10T09:39:15.948Z,7.47
2022-09-10T09:42:00.278Z,6.60
2022-09-10T09:44:36.811Z,6.60
2022-09-10T09:47:08.303Z,5.40
2022-09-10T09:49:40.578Z,4.60
2022-09-10T09:52:23.185Z,4.53
2022-09-10T09:55:13.790Z,4.00
2022-09-10T09:57:43.612Z,4.53
2022-09-10T10:00:37.141Z,3.90
2022-09-10T10:03:17.380Z,4.10
2022-09-10T10:05:46.625Z,3.77
2022-09-10T10:08:31.169Z,3.33
2022-09-10T10:11:05.085Z,3.13
2022-09-10T10:13:40.055Z,2.60
2022-09-10T10:16:18.685Z,2.60
2022-09-10T10:18:48.746Z,2.77
2022-09-10T10:21:21.199Z,2.43
2022-09-10T10:23:50.513Z,2.87
2022-09-10T10:26:32.076Z,2.60
2022-09-10T10:29:06.275Z,2.10
2022-09-10T10:31:41.124Z,2.43
2022-09-10T10:34:47.327Z,1.80
2022-09-10T10:37:26.897Z,1.77
2022-09-10T10:40:27.250Z,1.60
2022-09-10T10:43:11.732Z,1.40
2022-09-10T10:45:56.189Z,1.10
2022-09-10T10:48:45.046Z,1.20
2022-09-10T10:51:29.016Z,1.20
2022-09-10T10:54:25.648Z,1.10
2022-09-10T10:57:09.352Z,1.20
2022-09-10T10:59:54.510Z,1.20
2022-09-10T11:02:39.438Z,1.10
2022-09-10T11:05:25.668Z,1.07
2022-09-10T11:07:57.165Z,1.30
2022-09-10T11:10:33.847Z,1.40
2022-09-10T11:13:13.407Z,1.23
2022-09-10T11:15:52.786Z,1.00
2022-09-10T11:18:31.656Z,1.40
2022-09-10T11:21:11.682Z,1.10
2022-09-10T11:23:51.330Z,1.00
2022-09-10T11:26:25.707Z,1.40
2022-09-10T11:29:07.263Z,1.10
2022-09-10T11:31:43.107Z,1.10
2022-09-10T11:34:20.717Z,1.10
2022-09-10T11:36:57.252Z,1.27
2022-09-10T11:39:35.459Z,1.17
2022-09-10T11:42:18.422Z,0.97
2022-09-10T11:45:00.528Z,1.10
2022-09-10T11:47:37.249Z,1.27
2022-09-10T11:50:34.450Z,1.30
2022-09-10T11:53:07.406Z,1.20
2022-09-10T11:56:06.773Z,1.13
2022-09-10T11:58:51.702Z,1.10
2022-09-10T12:01:44.023Z,1.10
2022-09-10T12:04:46.968Z,1.27
2022-09-10T12:07:36.242Z,1.20
2022-09-10T12:10:20.849Z,1.10
2022-09-10T12:12:51.525Z,1.40
2022-09-10T12:15:23.333Z,1.20
2022-09-10T12:18:00.465Z,1.30
2022-09-10T12:20:33.675Z,1.30
2022-09-10T12:23:02.566Z,1.17
2022-09-10T12:25:34.802Z,1.23
2022-09-10T12:28:08.092Z,1.50
2022-09-10T12:30:59.846Z,1.50
2022-09-10T12:34:18.126Z,1.50
2022-09-10T12:37:26.384Z,1.50
2022-09-10T12:40:45.418Z,2.23
2022-09-10T12:43:57.042Z,1.73
2022-09-10T12:46:27.022Z,1.50
2022-09-10T12:49:14.215Z,1.50
2022-09-10T12:51:59.697Z,1.47
2022-09-10T12:54:53.622Z,1.30
2022-09-10T12:57:36.545Z,1.20
2022-09-10T13:00:25.757Z,1.67
2022-09-10T13:03:11.097Z,1.27
2022-09-10T13:05:53.206Z,1.47
2022-09-10T13:08:27.672Z,2.13
2022-09-10T13:11:17.758Z,1.20
2022-09-10T13:13:54.610Z,1.67
2022-09-10T13:16:42.586Z,1.20
2022-09-10T13:19:52.118Z,1.17
2022-09-10T13:22:36.231Z,1.27
2022-09-10T13:25:26.096Z,1.37
2022-09-10T13:27:54.613Z,1.20
2022-09-10T13:30:24.454Z,1.50
2022-09-10T13:32:59.573Z,1.30
2022-09-10T13:36:10.555Z,1.30
2022-09-10T13:39:12.231Z,1.87
2022-09-10T13:42:19.261Z,1.20
2022-09-10T13:45:12.236Z,1.10
2022-09-10T13:47:47.387Z,1.30
2022-09-10T13:50:21.831Z,0.90
2022-09-10T13:53:18.268Z,1.20
2022-09-10T13:55:58.968Z,1.40
2022-09-10T13:58:33.579Z,1.10
2022-09-10T14:01:07.002Z,1.20
2022-09-10T14:03:38.796Z,1.40
2022-09-10T14:06:12.838Z,1.20
2022-09-10T14:08:49.413Z,1.10
2022-09-10T14:11:28.032Z,1.20
2022-09-10T14:14:06.057Z,1.23
2022-09-10T14:16:41.632Z,1.10
2022-09-10T14:19:21.265Z,1.40
2022-09-10T14:21:53.334Z,1.00
2022-09-10T14:24:45.196Z,1.43
2022-09-10T14:27:23.936Z,1.63
2022-09-10T14:29:53.629Z,2.63
2022-09-10T14:32:33.844Z,1.40
2022-09-10T14:35:43.772Z,1.90
2022-09-10T14:38:29.795Z,1.47
2022-09-10T14:41:08.775Z,1.60
2022-09-10T14:43:40.320Z,1.80
2022-09-10T14:46:13.302Z,1.60
2022-09-10T14:49:02.394Z,1.70
2022-09-10T14:51:30.797Z,2.23
2022-09-10T14:54:00.688Z,2.00
2022-09-10T14:56:34.597Z,2.40
2022-09-10T14:59:07.233Z,2.30
2022-09-10T15:01:35.905Z,1.70
2022-09-10T15:04:06.435Z,1.53
2022-09-10T15:06:34.908Z,1.53
2022-09-10T15:09:05.009Z,1.90
2022-09-10T15:11:34.298Z,1.87
2022-09-10T15:14:02.619Z,2.07
2022-09-10T15:16:30.949Z,1.53
2022-09-10T15:18:59.392Z,1.47
2022-09-10T15:21:28.068Z,1.90
2022-09-10T15:23:56.865Z,2.13
2022-09-10T15:26:26.630Z,2.33
2022-09-10T15:28:54.984Z,2.10
2022-09-10T15:31:24.466Z,1.80
2022-09-10T15:33:53.633Z,2.03
2022-09-10T15:36:22.426Z,1.77
2022-09-10T15:38:54.208Z,1.73
2022-09-10T15:41:23.297Z,1.67
2022-09-10T15:43:53.345Z,1.63
2022-09-10T15:46:24.389Z,1.83
2022-09-10T15:48:55.605Z,1.40
2022-09-10T15:51:25.136Z,1.40
2022-09-10T15:53:56.300Z,1.70
2022-09-10T15:56:26.020Z,2.00
2022-09-10T15:58:58.584Z,1.93
2022-09-10T16:01:29.125Z,2.80
2022-09-10T16:04:02.733Z,9.83
2022-09-10T16:06:35.949Z,6.30
2022-09-10T16:09:09.007Z,2.80
2022-09-10T16:11:40.888Z,2.20
2022-09-10T16:14:14.381Z,2.10
2022-09-10T16:16:43.130Z,2.00
2022-09-10T16:19:13.490Z,1.50
2022-09-10T16:21:42.106Z,2.20
2022-09-10T16:24:11.333Z,1.40
2022-09-10T16:26:42.120Z,1.30
2022-09-10T16:29:16.437Z,1.53
2022-09-10T16:31:46.163Z,2.47
2022-09-10T16:34:18.392Z,2.23
2022-09-10T16:36:48.676Z,2.03
2022-09-10T16:39:19.017Z,1.80
2022-09-10T16:41:49.500Z,1.60
2022-09-10T16:44:20.556Z,2.10
2022-09-10T16:46:50.038Z,1.70
2022-09-10T16:49:20.385Z,2.20
2022-09-10T16:51:50.064Z,2.77
2022-09-10T16:54:20.891Z,2.77
2022-09-10T16:56:50.827Z,2.60
2022-09-10T16:59:23.482Z,2.30
2022-09-10T17:01:53.901Z,2.10
2022-09-10T17:04:28.927Z,2.37
2022-09-10T17:06:59.034Z,3.20
2022-09-10T17:09:27.781Z,3.37
2022-09-10T17:11:56.492Z,3.90
2022-09-10T17:14:26.414Z,2.70
2022-09-10T17:16:54.849Z,2.30
2022-09-10T17:19:26.344Z,2.13
2022-09-10T17:21:57.159Z,2.40
2022-09-10T17:24:29.602Z,2.40
2022-09-10T17:26:57.985Z,2.20
2022-09-10T17:29:29.645Z,2.00
2022-09-10T17:31:58.536Z,2.43
2022-09-10T17:34:28.134Z,1.93
2022-09-10T17:36:58.904Z,2.23
2022-09-10T17:39:29.353Z,2.50
2022-09-10T17:41:58.855Z,2.10
2022-09-10T17:44:28.890Z,1.90
2022-09-10T17:46:57.370Z,2.23
2022-09-10T17:49:25.820Z,2.00
2022-09-10T17:51:54.398Z,2.23
2022-09-10T17:54:23.452Z,2.10
2022-09-10T17:56:51.873Z,1.97
2022-09-10T17:59:21.885Z,2.27
2022-09-10T18:01:52.526Z,2.03
2022-09-10T18:04:21.955Z,3.13
2022-09-10T18:06:52.558Z,2.40
2022-09-10T18:09:22.013Z,2.30
2022-09-10T18:11:50.542Z,1.80
2022-09-10T18:14:21.770Z,1.97
2022-09-10T18:16:52.184Z,2.40
2022-09-10T18:19:21.111Z,2.50
2022-09-10T18:21:50.964Z,2.60
2022-09-10T18:24:22.426Z,2.60
2022-09-10T18:26:53.691Z,2.80
2022-09-10T18:29:24.299Z,3.00
2022-09-10T18:31:57.206Z,3.10
2022-09-10T18:34:28.146Z,2.50
2022-09-10T18:36:59.533Z,1.90
2022-09-10T18:39:30.702Z,1.80
2022-09-10T18:42:00.869Z,2.00
2022-09-10T18:44:33.112Z,1.87
2022-09-10T18:47:02.990Z,2.03
2022-09-10T18:49:31.560Z,1.80
2022-09-10T18:52:00.195Z,1.93
2022-09-10T18:54:29.641Z,2.20
2022-09-10T18:56:58.406Z,2.00
2022-09-10T18:59:27.191Z,2.60
2022-09-10T19:01:56.856Z,2.20
2022-09-10T19:04:29.492Z,3.27
2022-09-10T19:06:59.288Z,3.23
2022-09-10T19:09:30.578Z,2.77
2022-09-10T19:12:01.280Z,3.00
2022-09-10T19:14:32.739Z,2.97
2022-09-10T19:17:02.891Z,3.20
2022-09-10T19:19:36.275Z,3.30
2022-09-10T19:22:07.446Z,2.53
2022-09-10T19:24:55.003Z,2.73
2022-09-10T19:27:24.921Z,2.03
2022-09-10T19:29:53.734Z,2.00
2022-09-10T19:32:22.513Z,2.33
2022-09-10T19:34:55.358Z,3.30
2022-09-10T19:37:24.272Z,2.60
2022-09-10T19:39:52.868Z,2.80
2022-09-10T19:42:21.423Z,2.67
2022-09-10T19:44:49.851Z,2.27
2022-09-10T19:47:18.511Z,2.00
2022-09-10T19:49:48.224Z,1.93
2022-09-10T19:52:19.047Z,1.70
2022-09-10T19:54:47.955Z,2.17
2022-09-10T19:57:16.296Z,1.90
2022-09-10T19:59:44.642Z,2.33
2022-09-10T20:02:13.152Z,1.83
2022-09-10T20:04:41.603Z,1.87
2022-09-10T20:07:09.928Z,2.00
2022-09-10T20:09:40.186Z,1.70
2022-09-10T20:12:09.732Z,2.20
2022-09-10T20:14:38.988Z,2.10
2022-09-10T20:17:07.477Z,2.17
2022-09-10T20:19:36.030Z,2.30
2022-09-10T20:22:04.448Z,1.90
2022-09-10T20:24:33.072Z,1.87
2022-09-10T20:27:02.848Z,1.97
2022-09-10T20:29:32.845Z,2.60
2022-09-10T20:32:01.641Z,2.20
2022-09-10T20:34:31.269Z,2.73
2022-09-10T20:36:59.936Z,2.13
2022-09-10T20:39:28.637Z,2.20
2022-09-10T20:41:57.692Z,2.37
2022-09-10T20:44:27.450Z,2.50
2022-09-10T20:46:56.270Z,2.90
2022-09-10T20:49:24.600Z,3.37
2022-09-10T20:51:53.502Z,2.90
2022-09-10T20:54:21.921Z,2.50
2022-09-10T20:56:50.248Z,2.83
2022-09-10T20:59:20.869Z,2.83
2022-09-10T21:01:53.295Z,2.40
2022-09-10T21:04:21.960Z,2.97
2022-09-10T21:06:50.416Z,2.37
2022-09-10T21:09:18.937Z,2.60
2022-09-10T21:11:47.383Z,3.07
2022-09-10T21:14:16.027Z,2.97
2022-09-10T21:16:45.215Z,2.80
2022-09-10T21:19:17.826Z,3.30
2022-09-10T21:21:48.737Z,3.20
2022-09-10T21:24:20.115Z,3.47
2022-09-10T21:26:49.105Z,3.23
2022-09-10T21:29:20.432Z,2.73
2022-09-10T21:31:50.539Z,4.07
2022-09-10T21:34:20.398Z,3.10
2022-09-10T21:36:48.732Z,3.20
2022-09-10T21:39:19.023Z,3.00
2022-09-10T21:41:50.883Z,3.50
2022-09-10T21:44:22.204Z,4.10
2022-09-10T21:46:51.425Z,3.20
2022-09-10T21:49:21.491Z,3.17
2022-09-10T21:51:50.376Z,3.37
2022-09-10T21:54:21.922Z,2.97
2022-09-10T21:56:51.515Z,3.20
2022-09-10T21:59:21.253Z,3.30
2022-09-10T22:01:50.353Z,3.20
2022-09-10T22:04:23.042Z,3.57
2022-09-10T22:06:54.332Z,3.17
2022-09-10T22:09:24.231Z,3.47
2022-09-10T22:11:54.244Z,2.90
2022-09-10T22:14:25.825Z,3.80
2022-09-10T22:16:55.057Z,3.60
2022-09-10T22:19:27.235Z,2.73
2022-09-10T22:21:56.778Z,3.10
2022-09-10T22:24:26.005Z,3.57
2022-09-10T22:26:55.148Z,4.10
2022-09-10T22:29:24.601Z,2.97
2022-09-10T22:31:52.969Z,3.77
2022-09-10T22:34:22.501Z,3.50
2022-09-10T22:36:52.204Z,3.20
2022-09-10T22:39:22.542Z,2.83
2022-09-10T22:41:52.292Z,3.50
2022-09-10T22:44:20.820Z,3.40
2022-09-10T22:46:49.421Z,3.57
2022-09-10T22:49:18.112Z,3.40
2022-09-10T22:51:46.610Z,3.87
2022-09-10T22:54:17.231Z,3.67
2022-09-10T22:56:45.601Z,3.63
2022-09-10T22:59:15.906Z,3.80
2022-09-10T23:01:47.113Z,3.17
2022-09-10T23:04:16.078Z,3.20
2022-09-10T23:06:44.860Z,3.30
2022-09-10T23:09:17.347Z,3.80
2022-09-10T23:11:46.578Z,3.30
2022-09-10T23:14:19.890Z,3.07
2022-09-10T23:16:51.708Z,2.93
2022-09-10T23:19:23.757Z,3.20
2022-09-10T23:21:55.297Z,3.13
2022-09-10T23:24:28.189Z,3.60
2022-09-10T23:26:57.391Z,3.67
2022-09-10T23:29:25.746Z,3.10
2022-09-10T23:31:54.279Z,3.77
2022-09-10T23:34:23.889Z,3.40
2022-09-10T23:37:10.812Z,3.20
2022-09-10T23:39:40.555Z,3.23
2022-09-10T23:42:09.112Z,3.30
2022-09-10T23:44:37.615Z,3.43
2022-09-10T23:47:06.475Z,3.50
2022-09-10T23:49:34.837Z,3.53
2022-09-10T23:52:03.910Z,3.43
2022-09-10T23:54:32.318Z,3.43
2022-09-10T23:57:03.078Z,3.97
2022-09-10T23:59:31.382Z,3.40
